sensor_id;sensor_type;location;lat;lon;timestamp;temperature;humidity
7654;DHT22;3869;48.406;10.774;2024-01-10T00:02:19;-5.70;99.90
7654;DHT22;3869;48.406;10.774;2024-01-10T00:04:49;-5.70;99.90
7654;DHT22;3869;48.406;10.774;2024-01-10T00:07:17;-5.70;99.90
7654;DHT22;3869;48.406;10.774;2024-01-10T00:09:45;-5.70;99.90
7654;DHT22;3869;48.406;10.774;2024-01-10T00:12:13;-5.60;99.90
7654;DHT22;3869;48.406;10.774;2024-01-10T00:14:41;-5.60;99.90
7654;DHT22;3869;48.406;10.774;2024-01-10T00:17:09;-5.60;99.90
7654;DHT22;3869;48.406;10.774;2024-01-10T00:19:38;-5.60;99.90
7654;DHT22;3869;48.406;10.774;2024-01-10T00:22:08;-5.60;99.90
7654;DHT22;3869;48.406;10.774;2024-01-10T00:24:36;-5.60;99.90
7654;DHT22;3869;48.406;10.774;2024-01-10T00:27:04;-5.60;99.90
7654;DHT22;3869;48.406;10.774;2024-01-10T00:29:33;-5.60;99.90
7654;DHT22;3869;48.406;10.774;2024-01-10T00:32:01;-5.60;99.90
7654;DHT22;3869;48.406;10.774;2024-01-10T00:34:29;-5.60;99.90
7654;DHT22;3869;48.406;10.774;2024-01-10T00:36:57;-5.60;99.90
7654;DHT22;3869;48.406;10.774;2024-01-10T00:39:27;-5.60;99.90
7654;DHT22;3869;48.406;10.774;2024-01-10T00:41:55;-5.60;99.90
7654;DHT22;3869;48.406;10.774;2024-01-10T00:44:23;-5.70;99.90
7654;DHT22;3869;48.406;10.774;2024-01-10T00:46:51;-5.70;99.90
7654;DHT22;3869;48.406;10.774;2024-01-10T00:49:19;-5.70;99.90
7654;DHT22;3869;48.406;10.774;2024-01-10T00:51:47;-5.70;99.90
7654;DHT22;3869;48.406;10.774;2024-01-10T00:54:15;-5.70;99.90
7654;DHT22;3869;48.406;10.774;2024-01-10T00:56:45;-5.70;99.90
7654;DHT22;3869;48.406;10.774;2024-01-10T00:59:13;-5.70;99.90
7654;DHT22;3869;48.406;10.774;2024-01-10T01:01:41;-5.70;99.90
7654;DHT22;3869;48.406;10.774;2024-01-10T01:04:09;-5.70;99.90
7654;DHT22;3869;48.406;10.774;2024-01-10T01:06:37;-5.60;99.90
7654;DHT22;3869;48.406;10.774;2024-01-10T01:09:05;-5.60;99.90
7654;DHT22;3869;48.406;10.774;2024-01-10T01:11:33;-5.60;99.90
7654;DHT22;3869;48.406;10.774;2024-01-10T01:35:32;-5.20;99.90
7654;DHT22;3869;48.406;10.774;2024-01-10T01:39:31;-5.70;99.90
7654;DHT22;3869;48.406;10.774;2024-01-10T01:43:18;-5.60;99.90
7654;DHT22;3869;48.406;10.774;2024-01-10T01:46:40;-5.60;99.90
7654;DHT22;3869;48.406;10.774;2024-01-10T03:13:32;-5.90;99.90
7654;DHT22;3869;48.406;10.774;2024-01-10T03:20:06;-5.90;99.90
7654;DHT22;3869;48.406;10.774;2024-01-10T03:23:36;-5.80;99.90
7654;DHT22;3869;48.406;10.774;2024-01-10T03:27:05;-5.70;99.90
7654;DHT22;3869;48.406;10.774;2024-01-10T05:06:01;-5.30;99.90
7654;DHT22;3869;48.406;10.774;2024-01-10T05:13:54;-5.40;99.90
7654;DHT22;3869;48.406;10.774;2024-01-10T05:20:44;-5.50;99.90
7654;DHT22;3869;48.406;10.774;2024-01-10T05:27:45;-5.40;99.90
7654;DHT22;3869;48.406;10.774;2024-01-10T05:35:09;-5.30;99.90
7654;DHT22;3869;48.406;10.774;2024-01-10T05:42:08;-5.20;99.90
7654;DHT22;3869;48.406;10.774;2024-01-10T05:49:27;-5.10;99.90
7654;DHT22;3869;48.406;10.774;2024-01-10T05:52:50;-5.10;99.90
7654;DHT22;3869;48.406;10.774;2024-01-10T05:56:25;-5.20;99.90
7654;DHT22;3869;48.406;10.774;2024-01-10T05:59:20;-5.30;99.90
7654;DHT22;3869;48.406;10.774;2024-01-10T06:01:51;-5.40;99.90
7654;DHT22;3869;48.406;10.774;2024-01-10T06:04:19;-5.50;99.90
7654;DHT22;3869;48.406;10.774;2024-01-10T06:06:48;-5.50;99.90
7654;DHT22;3869;48.406;10.774;2024-01-10T06:09:16;-5.50;99.90
7654;DHT22;3869;48.406;10.774;2024-01-10T06:11:49;-5.50;99.90
7654;DHT22;3869;48.406;10.774;2024-01-10T06:14:17;-5.40;99.90
7654;DHT22;3869;48.406;10.774;2024-01-10T06:16:45;-5.30;99.90
7654;DHT22;3869;48.406;10.774;2024-01-10T06:19:13;-5.20;99.90
7654;DHT22;3869;48.406;10.774;2024-01-10T06:21:41;-5.20;99.90
7654;DHT22;3869;48.406;10.774;2024-01-10T06:24:11;-5.10;99.90
7654;DHT22;3869;48.406;10.774;2024-01-10T06:26:39;-5.00;99.90
7654;DHT22;3869;48.406;10.774;2024-01-10T06:29:07;-5.00;99.90
7654;DHT22;3869;48.406;10.774;2024-01-10T06:31:35;-5.00;99.90
7654;DHT22;3869;48.406;10.774;2024-01-10T06:34:03;-5.00;99.90
7654;DHT22;3869;48.406;10.774;2024-01-10T06:36:31;-5.00;99.90
7654;DHT22;3869;48.406;10.774;2024-01-10T06:38:59;-5.00;99.90
7654;DHT22;3869;48.406;10.774;2024-01-10T06:41:29;-5.00;99.90
7654;DHT22;3869;48.406;10.774;2024-01-10T06:43:57;-5.00;99.90
7654;DHT22;3869;48.406;10.774;2024-01-10T06:46:25;-5.10;99.90
7654;DHT22;3869;48.406;10.774;2024-01-10T06:48:53;-5.10;99.90
7654;DHT22;3869;48.406;10.774;2024-01-10T06:51:22;-5.10;99.90
7654;DHT22;3869;48.406;10.774;2024-01-10T06:53:50;-5.10;99.90
7654;DHT22;3869;48.406;10.774;2024-01-10T06:56:18;-5.10;99.90
7654;DHT22;3869;48.406;10.774;2024-01-10T06:58:48;-5.10;99.90
7654;DHT22;3869;48.406;10.774;2024-01-10T07:01:16;-5.10;99.90
7654;DHT22;3869;48.406;10.774;2024-01-10T07:03:44;-5.20;99.90
7654;DHT22;3869;48.406;10.774;2024-01-10T07:06:12;-5.20;99.90
7654;DHT22;3869;48.406;10.774;2024-01-10T07:08:42;-5.20;99.90
7654;DHT22;3869;48.406;10.774;2024-01-10T07:11:11;-5.20;99.90
7654;DHT22;3869;48.406;10.774;2024-01-10T07:13:40;-5.30;99.90
7654;DHT22;3869;48.406;10.774;2024-01-10T07:16:10;-5.30;99.90
7654;DHT22;3869;48.406;10.774;2024-01-10T07:18:38;-5.30;99.90
7654;DHT22;3869;48.406;10.774;2024-01-10T07:21:08;-5.20;99.90
7654;DHT22;3869;48.406;10.774;2024-01-10T07:23:37;-5.20;99.90
7654;DHT22;3869;48.406;10.774;2024-01-10T07:26:07;-5.20;99.90
7654;DHT22;3869;48.406;10.774;2024-01-10T07:28:35;-5.10;99.90
7654;DHT22;3869;48.406;10.774;2024-01-10T07:31:05;-5.10;99.90
7654;DHT22;3869;48.406;10.774;2024-01-10T07:33:34;-5.10;99.90
7654;DHT22;3869;48.406;10.774;2024-01-10T07:36:03;-5.20;99.90
7654;DHT22;3869;48.406;10.774;2024-01-10T07:38:31;-5.10;99.90
7654;DHT22;3869;48.406;10.774;2024-01-10T07:41:00;-5.10;99.90
7654;DHT22;3869;48.406;10.774;2024-01-10T07:43:29;-5.00;99.90
7654;DHT22;3869;48.406;10.774;2024-01-10T07:45:57;-5.00;99.90
7654;DHT22;3869;48.406;10.774;2024-01-10T07:48:25;-4.90;99.90
7654;DHT22;3869;48.406;10.774;2024-01-10T07:50:55;-4.90;99.90
7654;DHT22;3869;48.406;10.774;2024-01-10T07:53:23;-4.90;99.90
7654;DHT22;3869;48.406;10.774;2024-01-10T07:55:53;-4.90;99.90
7654;DHT22;3869;48.406;10.774;2024-01-10T07:58:21;-4.90;99.90
7654;DHT22;3869;48.406;10.774;2024-01-10T08:00:49;-4.90;99.90
7654;DHT22;3869;48.406;10.774;2024-01-10T08:03:18;-4.90;99.90
7654;DHT22;3869;48.406;10.774;2024-01-10T08:05:46;-5.00;99.90
7654;DHT22;3869;48.406;10.774;2024-01-10T08:08:16;-5.00;99.90
7654;DHT22;3869;48.406;10.774;2024-01-10T08:10:44;-5.00;99.90
7654;DHT22;3869;48.406;10.774;2024-01-10T08:13:12;-5.00;99.90
7654;DHT22;3869;48.406;10.774;2024-01-10T08:15:40;-5.10;99.90
7654;DHT22;3869;48.406;10.774;2024-01-10T08:18:08;-5.10;99.90
7654;DHT22;3869;48.406;10.774;2024-01-10T08:20:36;-5.10;99.90
7654;DHT22;3869;48.406;10.774;2024-01-10T08:23:04;-5.00;99.90
7654;DHT22;3869;48.406;10.774;2024-01-10T08:25:34;-4.90;99.90
7654;DHT22;3869;48.406;10.774;2024-01-10T08:28:02;-5.00;99.90
7654;DHT22;3869;48.406;10.774;2024-01-10T08:30:30;-4.90;99.90
7654;DHT22;3869;48.406;10.774;2024-01-10T08:32:59;-4.90;99.90
7654;DHT22;3869;48.406;10.774;2024-01-10T08:35:27;-4.90;99.90
7654;DHT22;3869;48.406;10.774;2024-01-10T08:37:55;-4.90;99.90
7654;DHT22;3869;48.406;10.774;2024-01-10T08:40:24;-4.80;99.90
7654;DHT22;3869;48.406;10.774;2024-01-10T08:42:55;-4.80;99.90
7654;DHT22;3869;48.406;10.774;2024-01-10T08:45:23;-4.70;99.90
7654;DHT22;3869;48.406;10.774;2024-01-10T08:47:51;-4.60;99.90
7654;DHT22;3869;48.406;10.774;2024-01-10T08:50:20;-4.50;99.90
7654;DHT22;3869;48.406;10.774;2024-01-10T08:52:49;-4.40;99.90
7654;DHT22;3869;48.406;10.774;2024-01-10T08:55:17;-4.40;99.90
7654;DHT22;3869;48.406;10.774;2024-01-10T08:57:45;-4.40;99.90
7654;DHT22;3869;48.406;10.774;2024-01-10T09:00:16;-4.30;99.90
7654;DHT22;3869;48.406;10.774;2024-01-10T09:02:44;-4.30;99.90
7654;DHT22;3869;48.406;10.774;2024-01-10T09:05:12;-4.20;99.90
7654;DHT22;3869;48.406;10.774;2024-01-10T09:07:40;-4.20;99.90
7654;DHT22;3869;48.406;10.774;2024-01-10T09:10:09;-4.10;99.90
7654;DHT22;3869;48.406;10.774;2024-01-10T09:12:38;-4.10;99.90
7654;DHT22;3869;48.406;10.774;2024-01-10T09:15:06;-4.00;99.90
7654;DHT22;3869;48.406;10.774;2024-01-10T09:17:41;-3.90;99.90
7654;DHT22;3869;48.406;10.774;2024-01-10T09:20:09;-4.00;99.90
7654;DHT22;3869;48.406;10.774;2024-01-10T09:22:38;-4.00;99.90
7654;DHT22;3869;48.406;10.774;2024-01-10T09:25:06;-3.90;99.90
7654;DHT22;3869;48.406;10.774;2024-01-10T09:27:35;-3.90;99.90
7654;DHT22;3869;48.406;10.774;2024-01-10T09:30:05;-3.90;99.90
7654;DHT22;3869;48.406;10.774;2024-01-10T09:32:35;-3.90;99.90
7654;DHT22;3869;48.406;10.774;2024-01-10T09:35:06;-3.80;99.90
7654;DHT22;3869;48.406;10.774;2024-01-10T09:37:34;-3.60;99.90
7654;DHT22;3869;48.406;10.774;2024-01-10T09:40:03;-3.50;99.90
7654;DHT22;3869;48.406;10.774;2024-01-10T09:42:33;-3.40;99.90
7654;DHT22;3869;48.406;10.774;2024-01-10T09:45:04;-3.30;99.90
7654;DHT22;3869;48.406;10.774;2024-01-10T09:47:33;-3.20;99.90
7654;DHT22;3869;48.406;10.774;2024-01-10T09:50:06;-3.10;99.90
7654;DHT22;3869;48.406;10.774;2024-01-10T09:52:41;-3.10;99.90
7654;DHT22;3869;48.406;10.774;2024-01-10T09:55:10;-3.00;99.90
7654;DHT22;3869;48.406;10.774;2024-01-10T09:57:40;-3.00;99.90
7654;DHT22;3869;48.406;10.774;2024-01-10T10:00:11;-3.00;99.90
7654;DHT22;3869;48.406;10.774;2024-01-10T10:02:40;-3.00;99.90
7654;DHT22;3869;48.406;10.774;2024-01-10T10:05:14;-3.10;99.90
7654;DHT22;3869;48.406;10.774;2024-01-10T10:07:44;-3.00;99.90
7654;DHT22;3869;48.406;10.774;2024-01-10T10:10:12;-3.00;99.90
7654;DHT22;3869;48.406;10.774;2024-01-10T10:12:42;-3.10;99.90
7654;DHT22;3869;48.406;10.774;2024-01-10T10:15:12;-3.00;99.90
7654;DHT22;3869;48.406;10.774;2024-01-10T10:17:41;-3.00;99.90
7654;DHT22;3869;48.406;10.774;2024-01-10T10:20:20;-2.90;99.90
7654;DHT22;3869;48.406;10.774;2024-01-10T10:22:59;-2.80;99.90
7654;DHT22;3869;48.406;10.774;2024-01-10T10:25:31;-2.70;99.90
7654;DHT22;3869;48.406;10.774;2024-01-10T10:28:01;-2.60;99.90
7654;DHT22;3869;48.406;10.774;2024-01-10T10:30:31;-2.60;99.90
7654;DHT22;3869;48.406;10.774;2024-01-10T10:33:01;-2.50;99.90
7654;DHT22;3869;48.406;10.774;2024-01-10T10:35:33;-2.50;99.90
7654;DHT22;3869;48.406;10.774;2024-01-10T10:38:08;-2.50;99.90
7654;DHT22;3869;48.406;10.774;2024-01-10T10:40:37;-2.50;99.90
7654;DHT22;3869;48.406;10.774;2024-01-10T10:43:06;-2.50;99.90
7654;DHT22;3869;48.406;10.774;2024-01-10T10:45:38;-2.40;99.90
7654;DHT22;3869;48.406;10.774;2024-01-10T10:48:08;-2.30;99.90
7654;DHT22;3869;48.406;10.774;2024-01-10T10:50:39;-2.20;99.90
7654;DHT22;3869;48.406;10.774;2024-01-10T10:53:07;-2.20;99.90
7654;DHT22;3869;48.406;10.774;2024-01-10T10:55:36;-2.20;99.90
7654;DHT22;3869;48.406;10.774;2024-01-10T10:58:06;-2.10;99.90
7654;DHT22;3869;48.406;10.774;2024-01-10T11:00:38;-2.20;99.90
7654;DHT22;3869;48.406;10.774;2024-01-10T11:03:10;-2.20;99.90
7654;DHT22;3869;48.406;10.774;2024-01-10T11:05:41;-2.20;99.90
7654;DHT22;3869;48.406;10.774;2024-01-10T11:08:12;-2.30;99.90
7654;DHT22;3869;48.406;10.774;2024-01-10T11:10:44;-2.30;99.90
7654;DHT22;3869;48.406;10.774;2024-01-10T11:13:54;-2.20;99.90
7654;DHT22;3869;48.406;10.774;2024-01-10T11:19:43;-1.90;99.90
7654;DHT22;3869;48.406;10.774;2024-01-10T11:25:16;-1.80;99.90
7654;DHT22;3869;48.406;10.774;2024-01-10T11:27:46;-2.10;99.90
7654;DHT22;3869;48.406;10.774;2024-01-10T11:30:36;-2.20;99.90
7654;DHT22;3869;48.406;10.774;2024-01-10T11:33:19;-2.20;99.90
7654;DHT22;3869;48.406;10.774;2024-01-10T11:36:10;-2.30;99.90
7654;DHT22;3869;48.406;10.774;2024-01-10T11:38:41;-2.20;99.90
7654;DHT22;3869;48.406;10.774;2024-01-10T11:41:13;-2.30;99.90
7654;DHT22;3869;48.406;10.774;2024-01-10T11:43:43;-2.30;99.90
7654;DHT22;3869;48.406;10.774;2024-01-10T11:46:12;-2.30;99.90
7654;DHT22;3869;48.406;10.774;2024-01-10T11:48:41;-2.30;99.90
7654;DHT22;3869;48.406;10.774;2024-01-10T11:51:09;-2.20;99.90
7654;DHT22;3869;48.406;10.774;2024-01-10T11:53:38;-2.10;99.90
7654;DHT22;3869;48.406;10.774;2024-01-10T11:56:13;-2.00;99.90
7654;DHT22;3869;48.406;10.774;2024-01-10T11:59:00;-1.90;99.90
7654;DHT22;3869;48.406;10.774;2024-01-10T12:01:28;-1.90;99.90
7654;DHT22;3869;48.406;10.774;2024-01-10T12:03:57;-2.00;99.90
7654;DHT22;3869;48.406;10.774;2024-01-10T12:06:45;-2.00;99.90
7654;DHT22;3869;48.406;10.774;2024-01-10T12:09:14;-2.10;99.90
7654;DHT22;3869;48.406;10.774;2024-01-10T12:11:44;-2.20;99.90
7654;DHT22;3869;48.406;10.774;2024-01-10T12:14:12;-2.20;99.90
7654;DHT22;3869;48.406;10.774;2024-01-10T12:16:41;-2.20;99.90
7654;DHT22;3869;48.406;10.774;2024-01-10T12:19:09;-2.20;99.90
7654;DHT22;3869;48.406;10.774;2024-01-10T12:21:37;-2.20;99.90
7654;DHT22;3869;48.406;10.774;2024-01-10T12:24:06;-2.20;99.90
7654;DHT22;3869;48.406;10.774;2024-01-10T12:26:34;-2.20;99.90
7654;DHT22;3869;48.406;10.774;2024-01-10T12:29:04;-2.20;99.90
7654;DHT22;3869;48.406;10.774;2024-01-10T12:31:33;-2.30;99.90
7654;DHT22;3869;48.406;10.774;2024-01-10T12:34:01;-2.30;99.90
7654;DHT22;3869;48.406;10.774;2024-01-10T12:36:34;-2.20;99.90
7654;DHT22;3869;48.406;10.774;2024-01-10T12:39:02;-2.10;99.90
7654;DHT22;3869;48.406;10.774;2024-01-10T12:41:31;-1.90;99.90
7654;DHT22;3869;48.406;10.774;2024-01-10T12:44:00;-1.90;99.90
7654;DHT22;3869;48.406;10.774;2024-01-10T12:46:31;-1.80;99.90
7654;DHT22;3869;48.406;10.774;2024-01-10T12:49:00;-1.70;99.90
7654;DHT22;3869;48.406;10.774;2024-01-10T12:51:29;-1.70;99.90
7654;DHT22;3869;48.406;10.774;2024-01-10T12:53:59;-1.50;99.90
7654;DHT22;3869;48.406;10.774;2024-01-10T12:56:27;-1.50;99.90
7654;DHT22;3869;48.406;10.774;2024-01-10T12:58:56;-1.40;99.90
7654;DHT22;3869;48.406;10.774;2024-01-10T13:01:25;-1.30;99.90
7654;DHT22;3869;48.406;10.774;2024-01-10T13:03:54;-1.20;99.90
7654;DHT22;3869;48.406;10.774;2024-01-10T13:06:23;-1.20;99.90
7654;DHT22;3869;48.406;10.774;2024-01-10T13:08:51;-1.10;99.90
7654;DHT22;3869;48.406;10.774;2024-01-10T13:11:20;-1.10;99.90
7654;DHT22;3869;48.406;10.774;2024-01-10T13:13:48;-1.10;99.90
7654;DHT22;3869;48.406;10.774;2024-01-10T13:16:16;-1.00;99.90
7654;DHT22;3869;48.406;10.774;2024-01-10T13:18:44;-0.90;99.90
7654;DHT22;3869;48.406;10.774;2024-01-10T13:21:14;-0.90;99.90
7654;DHT22;3869;48.406;10.774;2024-01-10T13:23:42;-0.90;99.90
7654;DHT22;3869;48.406;10.774;2024-01-10T13:26:11;-0.90;99.90
7654;DHT22;3869;48.406;10.774;2024-01-10T13:28:40;-0.90;99.90
7654;DHT22;3869;48.406;10.774;2024-01-10T13:31:08;-1.00;99.90
7654;DHT22;3869;48.406;10.774;2024-01-10T13:33:37;-1.00;99.90
7654;DHT22;3869;48.406;10.774;2024-01-10T13:36:14;-1.10;99.90
7654;DHT22;3869;48.406;10.774;2024-01-10T13:38:42;-1.10;99.90
7654;DHT22;3869;48.406;10.774;2024-01-10T13:41:10;-1.20;99.90
7654;DHT22;3869;48.406;10.774;2024-01-10T13:43:38;-1.20;99.90
7654;DHT22;3869;48.406;10.774;2024-01-10T13:46:07;-1.20;99.90
7654;DHT22;3869;48.406;10.774;2024-01-10T13:48:35;-1.20;99.90
7654;DHT22;3869;48.406;10.774;2024-01-10T13:51:04;-1.20;99.90
7654;DHT22;3869;48.406;10.774;2024-01-10T13:53:34;-1.10;99.90
7654;DHT22;3869;48.406;10.774;2024-01-10T13:56:03;-1.20;99.90
7654;DHT22;3869;48.406;10.774;2024-01-10T13:58:32;-1.20;99.90
7654;DHT22;3869;48.406;10.774;2024-01-10T14:01:00;-1.20;99.90
7654;DHT22;3869;48.406;10.774;2024-01-10T14:03:28;-1.20;99.90
7654;DHT22;3869;48.406;10.774;2024-01-10T14:05:59;-1.20;99.90
7654;DHT22;3869;48.406;10.774;2024-01-10T14:08:28;-1.20;99.90
7654;DHT22;3869;48.406;10.774;2024-01-10T14:10:58;-1.20;99.90
7654;DHT22;3869;48.406;10.774;2024-01-10T14:13:26;-1.10;99.90
7654;DHT22;3869;48.406;10.774;2024-01-10T14:15:54;-1.10;99.90
7654;DHT22;3869;48.406;10.774;2024-01-10T14:18:22;-1.20;99.90
7654;DHT22;3869;48.406;10.774;2024-01-10T14:20:50;-1.20;99.90
7654;DHT22;3869;48.406;10.774;2024-01-10T14:23:18;-1.20;99.90
7654;DHT22;3869;48.406;10.774;2024-01-10T14:25:47;-1.20;99.90
7654;DHT22;3869;48.406;10.774;2024-01-10T14:28:16;-1.30;99.90
7654;DHT22;3869;48.406;10.774;2024-01-10T14:30:45;-1.40;99.90
7654;DHT22;3869;48.406;10.774;2024-01-10T14:33:13;-1.60;99.90
7654;DHT22;3869;48.406;10.774;2024-01-10T14:35:41;-1.70;99.90
7654;DHT22;3869;48.406;10.774;2024-01-10T14:38:09;-1.80;99.90
7654;DHT22;3869;48.406;10.774;2024-01-10T14:40:37;-2.00;99.90
7654;DHT22;3869;48.406;10.774;2024-01-10T14:43:05;-2.10;99.90
7654;DHT22;3869;48.406;10.774;2024-01-10T14:45:35;-2.10;99.90
7654;DHT22;3869;48.406;10.774;2024-01-10T14:48:04;-2.10;99.90
7654;DHT22;3869;48.406;10.774;2024-01-10T14:50:34;-2.10;99.90
7654;DHT22;3869;48.406;10.774;2024-01-10T14:53:02;-2.20;99.90
7654;DHT22;3869;48.406;10.774;2024-01-10T14:55:31;-2.20;99.90
7654;DHT22;3869;48.406;10.774;2024-01-10T14:57:59;-2.30;99.90
7654;DHT22;3869;48.406;10.774;2024-01-10T15:00:27;-2.30;99.90
7654;DHT22;3869;48.406;10.774;2024-01-10T15:02:57;-2.30;99.90
7654;DHT22;3869;48.406;10.774;2024-01-10T15:05:27;-2.30;99.90
7654;DHT22;3869;48.406;10.774;2024-01-10T15:07:55;-2.30;99.90
7654;DHT22;3869;48.406;10.774;2024-01-10T15:10:23;-2.40;99.90
7654;DHT22;3869;48.406;10.774;2024-01-10T15:12:51;-2.40;99.90
7654;DHT22;3869;48.406;10.774;2024-01-10T15:15:18;-2.40;99.90
7654;DHT22;3869;48.406;10.774;2024-01-10T15:17:47;-2.40;99.90
7654;DHT22;3869;48.406;10.774;2024-01-10T15:20:17;-2.40;99.90
7654;DHT22;3869;48.406;10.774;2024-01-10T15:22:45;-2.50;99.90
7654;DHT22;3869;48.406;10.774;2024-01-10T15:25:13;-2.40;99.90
7654;DHT22;3869;48.406;10.774;2024-01-10T15:27:41;-2.50;99.90
7654;DHT22;3869;48.406;10.774;2024-01-10T15:30:10;-2.40;99.90
7654;DHT22;3869;48.406;10.774;2024-01-10T15:32:43;-2.40;99.90
7654;DHT22;3869;48.406;10.774;2024-01-10T15:35:11;-2.40;99.90
7654;DHT22;3869;48.406;10.774;2024-01-10T15:37:43;-2.40;99.90
7654;DHT22;3869;48.406;10.774;2024-01-10T15:40:11;-2.40;99.90
7654;DHT22;3869;48.406;10.774;2024-01-10T15:42:40;-2.40;99.90
7654;DHT22;3869;48.406;10.774;2024-01-10T15:45:11;-2.40;99.90
7654;DHT22;3869;48.406;10.774;2024-01-10T15:47:39;-2.40;99.90
7654;DHT22;3869;48.406;10.774;2024-01-10T15:50:10;-2.40;99.90
7654;DHT22;3869;48.406;10.774;2024-01-10T15:52:38;-2.40;99.90
7654;DHT22;3869;48.406;10.774;2024-01-10T15:55:08;-2.40;99.90
7654;DHT22;3869;48.406;10.774;2024-01-10T15:57:36;-2.40;99.90
7654;DHT22;3869;48.406;10.774;2024-01-10T16:00:07;-2.50;99.90
7654;DHT22;3869;48.406;10.774;2024-01-10T16:02:35;-2.40;99.90
7654;DHT22;3869;48.406;10.774;2024-01-10T16:05:04;-2.50;99.90
7654;DHT22;3869;48.406;10.774;2024-01-10T16:07:32;-2.50;99.90
7654;DHT22;3869;48.406;10.774;2024-01-10T16:10:01;-2.50;99.90
7654;DHT22;3869;48.406;10.774;2024-01-10T16:12:31;-2.50;99.90
7654;DHT22;3869;48.406;10.774;2024-01-10T16:14:59;-2.50;99.90
7654;DHT22;3869;48.406;10.774;2024-01-10T16:17:27;-2.50;99.90
7654;DHT22;3869;48.406;10.774;2024-01-10T16:19:55;-2.50;99.90
7654;DHT22;3869;48.406;10.774;2024-01-10T16:22:23;-2.50;99.90
7654;DHT22;3869;48.406;10.774;2024-01-10T16:24:54;-2.60;99.90
7654;DHT22;3869;48.406;10.774;2024-01-10T16:27:22;-2.60;99.90
7654;DHT22;3869;48.406;10.774;2024-01-10T16:29:52;-2.60;99.90
7654;DHT22;3869;48.406;10.774;2024-01-10T16:32:20;-2.60;99.90
7654;DHT22;3869;48.406;10.774;2024-01-10T16:34:48;-2.70;99.90
7654;DHT22;3869;48.406;10.774;2024-01-10T16:37:16;-2.70;99.90
7654;DHT22;3869;48.406;10.774;2024-01-10T16:39:44;-2.80;99.90
7654;DHT22;3869;48.406;10.774;2024-01-10T16:42:12;-2.90;99.90
7654;DHT22;3869;48.406;10.774;2024-01-10T16:44:41;-2.90;99.90
7654;DHT22;3869;48.406;10.774;2024-01-10T16:47:10;-2.90;99.90
7654;DHT22;3869;48.406;10.774;2024-01-10T16:49:38;-3.00;99.90
7654;DHT22;3869;48.406;10.774;2024-01-10T16:52:06;-3.00;99.90
7654;DHT22;3869;48.406;10.774;2024-01-10T16:54:34;-3.00;99.90
7654;DHT22;3869;48.406;10.774;2024-01-10T16:57:03;-3.00;99.90
7654;DHT22;3869;48.406;10.774;2024-01-10T16:59:31;-3.00;99.90
7654;DHT22;3869;48.406;10.774;2024-01-10T17:01:59;-3.00;99.90
7654;DHT22;3869;48.406;10.774;2024-01-10T17:04:29;-3.10;99.90
7654;DHT22;3869;48.406;10.774;2024-01-10T17:06:57;-3.10;99.90
7654;DHT22;3869;48.406;10.774;2024-01-10T17:09:25;-3.10;99.90
7654;DHT22;3869;48.406;10.774;2024-01-10T17:11:53;-3.10;99.90
7654;DHT22;3869;48.406;10.774;2024-01-10T17:14:22;-3.20;99.90
7654;DHT22;3869;48.406;10.774;2024-01-10T17:16:50;-3.30;99.90
7654;DHT22;3869;48.406;10.774;2024-01-10T17:19:18;-3.20;99.90
7654;DHT22;3869;48.406;10.774;2024-01-10T17:21:47;-3.20;99.90
7654;DHT22;3869;48.406;10.774;2024-01-10T17:24:15;-3.20;99.90
7654;DHT22;3869;48.406;10.774;2024-01-10T17:26:43;-3.20;99.90
7654;DHT22;3869;48.406;10.774;2024-01-10T17:29:12;-3.20;99.90
7654;DHT22;3869;48.406;10.774;2024-01-10T17:31:40;-3.20;99.90
7654;DHT22;3869;48.406;10.774;2024-01-10T17:34:08;-3.20;99.90
7654;DHT22;3869;48.406;10.774;2024-01-10T17:36:36;-3.30;99.90
7654;DHT22;3869;48.406;10.774;2024-01-10T17:39:06;-3.30;99.90
7654;DHT22;3869;48.406;10.774;2024-01-10T17:41:35;-3.30;99.90
7654;DHT22;3869;48.406;10.774;2024-01-10T17:44:08;-3.30;99.90
7654;DHT22;3869;48.406;10.774;2024-01-10T17:46:36;-3.30;99.90
7654;DHT22;3869;48.406;10.774;2024-01-10T17:49:04;-3.30;99.90
7654;DHT22;3869;48.406;10.774;2024-01-10T17:51:32;-3.30;99.90
7654;DHT22;3869;48.406;10.774;2024-01-10T17:54:00;-3.30;99.90
7654;DHT22;3869;48.406;10.774;2024-01-10T17:56:30;-3.30;99.90
7654;DHT22;3869;48.406;10.774;2024-01-10T17:58:59;-3.40;99.90
7654;DHT22;3869;48.406;10.774;2024-01-10T18:01:27;-3.30;99.90
7654;DHT22;3869;48.406;10.774;2024-01-10T18:03:55;-3.30;99.90
7654;DHT22;3869;48.406;10.774;2024-01-10T18:06:37;-3.40;99.90
7654;DHT22;3869;48.406;10.774;2024-01-10T18:09:05;-3.40;99.90
7654;DHT22;3869;48.406;10.774;2024-01-10T18:11:36;-3.40;99.90
7654;DHT22;3869;48.406;10.774;2024-01-10T18:14:04;-3.40;99.90
7654;DHT22;3869;48.406;10.774;2024-01-10T18:16:32;-3.40;99.90
7654;DHT22;3869;48.406;10.774;2024-01-10T18:19:00;-3.40;99.90
7654;DHT22;3869;48.406;10.774;2024-01-10T18:21:29;-3.40;99.90
7654;DHT22;3869;48.406;10.774;2024-01-10T18:23:57;-3.40;99.90
7654;DHT22;3869;48.406;10.774;2024-01-10T18:26:25;-3.40;99.90
7654;DHT22;3869;48.406;10.774;2024-01-10T18:28:55;-3.50;99.90
7654;DHT22;3869;48.406;10.774;2024-01-10T18:31:23;-3.50;99.90
7654;DHT22;3869;48.406;10.774;2024-01-10T18:33:51;-3.50;99.90
7654;DHT22;3869;48.406;10.774;2024-01-10T18:36:20;-3.50;99.90
7654;DHT22;3869;48.406;10.774;2024-01-10T18:38:48;-3.40;99.90
7654;DHT22;3869;48.406;10.774;2024-01-10T18:41:17;-3.40;99.90
7654;DHT22;3869;48.406;10.774;2024-01-10T18:43:45;-3.40;99.90
7654;DHT22;3869;48.406;10.774;2024-01-10T18:46:14;-3.40;99.90
7654;DHT22;3869;48.406;10.774;2024-01-10T18:48:43;-3.50;99.90
7654;DHT22;3869;48.406;10.774;2024-01-10T18:51:11;-3.50;99.90
7654;DHT22;3869;48.406;10.774;2024-01-10T18:53:39;-3.60;99.90
7654;DHT22;3869;48.406;10.774;2024-01-10T18:56:07;-3.80;99.90
7654;DHT22;3869;48.406;10.774;2024-01-10T18:58:35;-3.90;99.90
7654;DHT22;3869;48.406;10.774;2024-01-10T19:01:03;-3.90;99.90
7654;DHT22;3869;48.406;10.774;2024-01-10T19:03:33;-3.90;99.90
7654;DHT22;3869;48.406;10.774;2024-01-10T19:06:01;-3.80;99.90
7654;DHT22;3869;48.406;10.774;2024-01-10T19:08:30;-3.80;99.90
7654;DHT22;3869;48.406;10.774;2024-01-10T19:10:58;-3.80;99.90
7654;DHT22;3869;48.406;10.774;2024-01-10T19:13:26;-3.80;99.90
7654;DHT22;3869;48.406;10.774;2024-01-10T19:15:54;-3.70;99.90
7654;DHT22;3869;48.406;10.774;2024-01-10T19:18:22;-3.70;99.90
7654;DHT22;3869;48.406;10.774;2024-01-10T19:20:51;-3.80;99.90
7654;DHT22;3869;48.406;10.774;2024-01-10T19:23:19;-3.90;99.90
7654;DHT22;3869;48.406;10.774;2024-01-10T19:25:47;-4.00;99.90
7654;DHT22;3869;48.406;10.774;2024-01-10T19:28:15;-4.10;99.90
7654;DHT22;3869;48.406;10.774;2024-01-10T19:30:43;-4.20;99.90
7654;DHT22;3869;48.406;10.774;2024-01-10T19:33:11;-4.10;99.90
7654;DHT22;3869;48.406;10.774;2024-01-10T19:35:40;-4.20;99.90
7654;DHT22;3869;48.406;10.774;2024-01-10T19:38:09;-4.30;99.90
7654;DHT22;3869;48.406;10.774;2024-01-10T19:40:38;-4.30;99.90
7654;DHT22;3869;48.406;10.774;2024-01-10T19:43:07;-4.30;99.90
7654;DHT22;3869;48.406;10.774;2024-01-10T19:45:35;-4.30;99.90
7654;DHT22;3869;48.406;10.774;2024-01-10T19:48:04;-4.30;99.90
7654;DHT22;3869;48.406;10.774;2024-01-10T19:50:32;-4.30;99.90
7654;DHT22;3869;48.406;10.774;2024-01-10T19:53:01;-4.30;99.90
7654;DHT22;3869;48.406;10.774;2024-01-10T19:55:31;-4.30;99.90
7654;DHT22;3869;48.406;10.774;2024-01-10T19:57:59;-4.30;99.90
7654;DHT22;3869;48.406;10.774;2024-01-10T20:00:27;-4.20;99.90
7654;DHT22;3869;48.406;10.774;2024-01-10T20:02:55;-4.10;99.90
7654;DHT22;3869;48.406;10.774;2024-01-10T20:05:23;-4.10;99.90
7654;DHT22;3869;48.406;10.774;2024-01-10T20:07:51;-4.10;99.90